Time;durP1;ratioP1;P1;durP2;ratioP2;P2;SDS_P1;SDS_P2;PMS_P1;PMS_P2;Temp;Humidity;BMP_temperature;BMP_pressure;BME280_temperature;BME280_humidity;BME280_pressure;Samples;Min_cycle;Max_cycle;Signal;HPM_P1;HPM_P2
2024/04/10 00:02:08;;;;;;;0.82;0.50;;;;;;;;;;5438527;25;56922;-76
2024/04/10 00:04:33;;;;;;;1.40;1.30;;;;;;;;;;5439433;25;56444;-76
2024/04/10 00:06:58;;;;;;;0.90;0.70;;;;;;;;;;5440198;25;58052;-76
2024/04/10 00:09:23;;;;;;;2.38;1.70;;;;;;;;;;5437577;25;57610;-77
2024/04/10 00:11:48;;;;;;;1.92;0.80;;;;;;;;;;5435971;25;56657;-76
2024/04/10 00:14:13;;;;;;;0.93;0.80;;;;;;;;;;5439760;25;57166;-73
2024/04/10 00:16:39;;;;;;;0.95;0.82;;;;;;;;;;5439938;25;56762;-73
2024/04/10 00:19:06;;;;;;;1.07;0.93;;;;;;;;;;5440143;25;58446;-74
2024/04/10 00:21:33;;;;;;;1.40;1.10;;;;;;;;;;5437888;25;59541;-74
2024/04/10 00:23:58;;;;;;;1.50;1.40;;;;;;;;;;5440401;25;56832;-74
2024/04/10 00:26:23;;;;;;;0.80;0.75;;;;;;;;;;5438152;25;57825;-74
2024/04/10 00:28:48;;;;;;;1.10;0.90;;;;;;;;;;5435962;25;58735;-73
2024/04/10 00:31:14;;;;;;;1.45;1.02;;;;;;;;;;5438443;25;56903;-73
2024/04/10 00:33:39;;;;;;;0.77;0.77;;;;;;;;;;5436771;25;57671;-73
2024/04/10 00:36:04;;;;;;;0.70;0.68;;;;;;;;;;5437559;25;56921;-74
2024/04/10 00:38:30;;;;;;;0.97;0.87;;;;;;;;;;5438121;25;58971;-74
2024/04/10 00:41:00;;;;;;;0.80;0.75;;;;;;;;;;5437808;25;56723;-73
2024/04/10 00:43:25;;;;;;;2.00;0.90;;;;;;;;;;5437898;25;56747;-73
2024/04/10 00:46:17;;;;;;;1.08;0.98;;;;;;;;;;5438592;25;58338;-73
2024/04/10 00:48:42;;;;;;;1.05;0.70;;;;;;;;;;5435179;25;57685;-75
2024/04/10 00:51:10;;;;;;;1.50;0.93;;;;;;;;;;5438896;25;56818;-74
2024/04/10 00:53:35;;;;;;;1.30;0.95;;;;;;;;;;5433833;25;58482;-73
2024/04/10 00:56:00;;;;;;;2.60;1.00;;;;;;;;;;5441571;25;56793;-74
2024/04/10 00:58:26;;;;;;;0.80;0.80;;;;;;;;;;5439997;25;57864;-74
2024/04/10 01:00:53;;;;;;;0.80;0.60;;;;;;;;;;5438559;25;58003;-74
2024/04/10 01:03:18;;;;;;;0.98;0.50;;;;;;;;;;5442352;25;56660;-73
2024/04/10 01:05:43;;;;;;;1.15;0.95;;;;;;;;;;5440058;25;58263;-73
2024/04/10 01:08:08;;;;;;;0.88;0.57;;;;;;;;;;5438954;25;57438;-73
2024/04/10 01:10:34;;;;;;;1.83;1.03;;;;;;;;;;5440265;25;56718;-73
2024/04/10 01:13:00;;;;;;;2.60;0.70;;;;;;;;;;5441650;25;57359;-73
2024/04/10 01:15:25;;;;;;;0.95;0.85;;;;;;;;;;5441788;25;58149;-73
2024/04/10 01:17:50;;;;;;;0.75;0.60;;;;;;;;;;5440778;25;57936;-74
2024/04/10 01:20:15;;;;;;;0.83;0.57;;;;;;;;;;5440510;25;57526;-74
2024/04/10 01:22:41;;;;;;;0.80;0.70;;;;;;;;;;5435043;25;56930;-74
2024/04/10 01:25:06;;;;;;;1.33;0.50;;;;;;;;;;5439696;25;57878;-76
2024/04/10 01:27:34;;;;;;;0.60;0.43;;;;;;;;;;5440189;25;59173;-77
2024/04/10 01:29:59;;;;;;;0.82;0.82;;;;;;;;;;5436353;25;56891;-76
2024/04/10 01:32:24;;;;;;;1.02;0.60;;;;;;;;;;5438557;25;57959;-77
2024/04/10 01:34:49;;;;;;;1.13;0.55;;;;;;;;;;5437444;25;57262;-76
2024/04/10 01:37:14;;;;;;;0.77;0.77;;;;;;;;;;5442277;25;56865;-76
2024/04/10 01:39:40;;;;;;;1.23;1.00;;;;;;;;;;5440079;25;56779;-76
2024/04/10 01:42:05;;;;;;;1.52;0.60;;;;;;;;;;5441421;25;56746;-76
2024/04/10 01:44:30;;;;;;;0.50;0.40;;;;;;;;;;5439244;25;58190;-77
2024/04/10 01:46:55;;;;;;;0.63;0.63;;;;;;;;;;5439167;25;58048;-75
2024/04/10 01:49:20;;;;;;;0.63;0.40;;;;;;;;;;5439742;25;56843;-77
2024/04/10 01:51:45;;;;;;;0.82;0.70;;;;;;;;;;5439995;25;58829;-77
2024/04/10 01:54:11;;;;;;;0.70;0.70;;;;;;;;;;5439110;25;57629;-75
2024/04/10 01:56:36;;;;;;;0.50;0.50;;;;;;;;;;5439598;25;56737;-76
2024/04/10 01:59:01;;;;;;;0.70;0.43;;;;;;;;;;5437981;25;57097;-77
2024/04/10 02:01:26;;;;;;;1.00;0.37;;;;;;;;;;5439841;25;56738;-76
2024/04/10 02:03:51;;;;;;;0.47;0.40;;;;;;;;;;5437982;25;58062;-76
2024/04/10 02:06:16;;;;;;;0.33;0.30;;;;;;;;;;5439538;25;57487;-77
2024/04/10 02:08:41;;;;;;;0.43;0.40;;;;;;;;;;5440657;25;56882;-78
2024/04/10 02:11:26;;;;;;;0.95;0.50;;;;;;;;;;5439828;25;56938;-76
2024/04/10 02:13:51;;;;;;;1.15;0.73;;;;;;;;;;5437130;25;57614;-76
2024/04/10 02:16:16;;;;;;;1.07;0.60;;;;;;;;;;5437573;25;56801;-76
2024/04/10 02:18:41;;;;;;;1.75;0.47;;;;;;;;;;5439161;25;57881;-77
2024/04/10 02:21:07;;;;;;;0.22;0.20;;;;;;;;;;5437448;25;56731;-77
2024/04/10 02:23:32;;;;;;;0.85;0.52;;;;;;;;;;5438105;25;57877;-76
2024/04/10 02:25:57;;;;;;;1.13;0.90;;;;;;;;;;5439077;25;57555;-76
2024/04/10 02:28:22;;;;;;;1.40;0.70;;;;;;;;;;5433704;25;57024;-76
2024/04/10 02:30:48;;;;;;;0.57;0.43;;;;;;;;;;5437269;25;58868;-76
2024/04/10 02:33:13;;;;;;;0.50;0.40;;;;;;;;;;5437603;25;57675;-75
2024/04/10 02:35:38;;;;;;;1.17;0.63;;;;;;;;;;5438131;25;56536;-75
2024/04/10 02:38:03;;;;;;;0.73;0.30;;;;;;;;;;5439318;25;57051;-75
2024/04/10 02:40:29;;;;;;;0.20;0.20;;;;;;;;;;5440258;25;57031;-77
2024/04/10 02:43:04;;;;;;;1.17;0.40;;;;;;;;;;5438740;25;57515;-75
2024/04/10 02:45:29;;;;;;;0.57;0.40;;;;;;;;;;5439431;25;57824;-76
2024/04/10 02:47:54;;;;;;;0.30;0.20;;;;;;;;;;5437461;25;57251;-77
2024/04/10 02:50:20;;;;;;;0.65;0.30;;;;;;;;;;5441681;25;57370;-76
2024/04/10 02:52:45;;;;;;;0.50;0.43;;;;;;;;;;5439410;25;56866;-76
2024/04/10 02:55:10;;;;;;;0.40;0.40;;;;;;;;;;5439192;25;56895;-76
2024/04/10 02:57:35;;;;;;;0.20;0.20;;;;;;;;;;5436296;25;59980;-76
2024/04/10 03:00:00;;;;;;;0.57;0.40;;;;;;;;;;5440826;25;57410;-76
2024/04/10 03:02:25;;;;;;;0.68;0.40;;;;;;;;;;5440884;25;56781;-77
2024/04/10 03:04:50;;;;;;;0.70;0.57;;;;;;;;;;5439572;25;58601;-76
2024/04/10 03:07:16;;;;;;;0.23;0.23;;;;;;;;;;5437304;25;56910;-76
2024/04/10 03:09:42;;;;;;;0.50;0.30;;;;;;;;;;5434743;25;58129;-76
2024/04/10 03:12:07;;;;;;;0.45;0.43;;;;;;;;;;5435012;25;57718;-76
2024/04/10 03:14:33;;;;;;;0.85;0.40;;;;;;;;;;5439007;25;56956;-77
2024/04/10 03:16:58;;;;;;;0.40;0.35;;;;;;;;;;5438430;25;57614;-77
2024/04/10 03:19:24;;;;;;;0.80;0.30;;;;;;;;;;5438252;25;59063;-76
2024/04/10 03:21:49;;;;;;;0.40;0.40;;;;;;;;;;5438381;25;57083;-76
2024/04/10 03:24:14;;;;;;;0.13;0.13;;;;;;;;;;5436773;25;57957;-75
2024/04/10 03:26:40;;;;;;;0.95;0.70;;;;;;;;;;5437799;25;56743;-77
2024/04/10 03:29:05;;;;;;;0.25;0.20;;;;;;;;;;5438933;25;57994;-76
2024/04/10 03:31:31;;;;;;;0.57;0.30;;;;;;;;;;5437730;25;57793;-77
2024/04/10 03:33:56;;;;;;;0.88;0.30;;;;;;;;;;5439361;25;56908;-77
2024/04/10 03:36:21;;;;;;;0.38;0.35;;;;;;;;;;5438278;25;59238;-76
2024/04/10 03:38:46;;;;;;;0.68;0.40;;;;;;;;;;5437866;25;58336;-76
2024/04/10 03:41:12;;;;;;;0.82;0.75;;;;;;;;;;5434459;25;56909;-75
2024/04/10 03:43:37;;;;;;;0.10;0.10;;;;;;;;;;5439398;25;58544;-77
2024/04/10 03:46:04;;;;;;;0.45;0.45;;;;;;;;;;5434091;25;57605;-74
2024/04/10 03:48:29;;;;;;;0.40;0.30;;;;;;;;;;5435837;25;57984;-74
2024/04/10 03:50:58;;;;;;;0.57;0.50;;;;;;;;;;5429429;25;57535;-74
2024/04/10 03:53:23;;;;;;;0.50;0.35;;;;;;;;;;5440818;25;56825;-74
2024/04/10 03:55:48;;;;;;;0.30;0.30;;;;;;;;;;5440408;25;57083;-73
2024/04/10 03:58:13;;;;;;;0.40;0.20;;;;;;;;;;5437868;25;57700;-74
2024/04/10 04:00:39;;;;;;;0.60;0.30;;;;;;;;;;5435827;25;56809;-74
2024/04/10 04:03:04;;;;;;;0.47;0.30;;;;;;;;;;5440094;25;57945;-74
2024/04/10 04:05:29;;;;;;;0.93;0.30;;;;;;;;;;5434266;25;57761;-73
2024/04/10 04:07:55;;;;;;;0.20;0.20;;;;;;;;;;5441771;25;57026;-73
2024/04/10 04:10:20;;;;;;;1.17;0.73;;;;;;;;;;5439611;25;57866;-73
2024/04/10 04:12:45;;;;;;;0.40;0.40;;;;;;;;;;5438121;25;56975;-74
2024/04/10 04:15:10;;;;;;;0.65;0.50;;;;;;;;;;5438772;25;57418;-73
2024/04/10 04:17:35;;;;;;;0.70;0.37;;;;;;;;;;5438359;25;57758;-74
2024/04/10 04:20:00;;;;;;;0.20;0.20;;;;;;;;;;5436220;25;56917;-74
2024/04/10 04:22:26;;;;;;;1.25;0.52;;;;;;;;;;5438894;25;56919;-74
2024/04/10 04:24:51;;;;;;;0.75;0.20;;;;;;;;;;5438058;25;57693;-73
2024/04/10 04:27:17;;;;;;;0.60;0.40;;;;;;;;;;5437303;25;56898;-74
2024/04/10 04:29:45;;;;;;;0.20;0.20;;;;;;;;;;5436627;25;57667;-74
2024/04/10 04:32:10;;;;;;;0.17;0.17;;;;;;;;;;5439826;25;56724;-73
2024/04/10 04:34:35;;;;;;;0.50;0.23;;;;;;;;;;5439207;25;57898;-74
2024/04/10 04:37:01;;;;;;;0.47;0.33;;;;;;;;;;5438718;25;57818;-73
2024/04/10 04:39:26;;;;;;;0.70;0.30;;;;;;;;;;5436613;25;56686;-74
2024/04/10 04:41:51;;;;;;;2.00;0.55;;;;;;;;;;5438581;25;58034;-74
2024/04/10 04:44:16;;;;;;;1.30;0.50;;;;;;;;;;5437953;25;57592;-74
2024/04/10 04:46:41;;;;;;;0.88;0.35;;;;;;;;;;5436508;25;56631;-75
2024/04/10 04:49:06;;;;;;;0.38;0.35;;;;;;;;;;5437177;25;57814;-74
2024/04/10 04:51:32;;;;;;;0.40;0.20;;;;;;;;;;5435786;25;56835;-76
2024/04/10 04:53:58;;;;;;;1.25;1.08;;;;;;;;;;5435865;25;58965;-78
2024/04/10 04:56:23;;;;;;;0.70;0.50;;;;;;;;;;5436223;25;58999;-78
2024/04/10 04:58:48;;;;;;;3.80;1.33;;;;;;;;;;5437556;25;56861;-77
2024/04/10 05:01:13;;;;;;;4.68;0.88;;;;;;;;;;5434403;25;58140;-76
2024/04/10 05:06:22;;;;;;;0.70;0.50;;;;;;;;;;5434687;25;56808;-77
2024/04/10 05:08:48;;;;;;;1.90;0.70;;;;;;;;;;5436989;25;58932;-77
2024/04/10 05:11:14;;;;;;;1.08;0.40;;;;;;;;;;5437111;25;58260;-76
2024/04/10 05:13:39;;;;;;;3.97;0.82;;;;;;;;;;5435629;25;58056;-77
2024/04/10 05:16:06;;;;;;;1.30;0.73;;;;;;;;;;5437648;25;56855;-78
2024/04/10 05:18:31;;;;;;;0.75;0.52;;;;;;;;;;5433705;25;56737;-77
2024/04/10 05:20:56;;;;;;;2.07;0.70;;;;;;;;;;5434796;25;58807;-77
2024/04/10 05:23:21;;;;;;;2.33;1.27;;;;;;;;;;5437231;25;58037;-78
2024/04/10 05:25:49;;;;;;;1.40;0.43;;;;;;;;;;5438788;25;56866;-78
2024/04/10 05:28:14;;;;;;;0.70;0.43;;;;;;;;;;5434089;25;57973;-76
2024/04/10 05:30:40;;;;;;;0.77;0.40;;;;;;;;;;5434835;25;57688;-76
2024/04/10 05:33:05;;;;;;;1.77;0.60;;;;;;;;;;5438736;25;56870;-77
2024/04/10 05:35:30;;;;;;;1.65;0.50;;;;;;;;;;5438074;25;58078;-77
2024/04/10 05:37:55;;;;;;;1.73;0.50;;;;;;;;;;5438718;25;56789;-77
2024/04/10 05:40:20;;;;;;;1.13;0.70;;;;;;;;;;5440778;25;57090;-77
2024/04/10 05:42:45;;;;;;;1.30;0.40;;;;;;;;;;5440029;25;57716;-78
2024/04/10 05:45:15;;;;;;;2.37;1.17;;;;;;;;;;5441157;25;57053;-77
2024/04/10 05:47:41;;;;;;;1.30;0.20;;;;;;;;;;5440410;25;58843;-77
2024/04/10 05:50:07;;;;;;;1.38;0.40;;;;;;;;;;5440255;25;57762;-77
2024/04/10 05:52:33;;;;;;;0.85;0.30;;;;;;;;;;5438543;25;57023;-77
2024/04/10 05:54:58;;;;;;;0.82;0.50;;;;;;;;;;5441050;25;56803;-78
2024/04/10 05:57:24;;;;;;;2.73;1.00;;;;;;;;;;5438145;25;56817;-77
2024/04/10 05:59:56;;;;;;;1.98;0.60;;;;;;;;;;5440322;25;57981;-78
2024/04/10 06:02:22;;;;;;;2.22;0.68;;;;;;;;;;5440263;25;57599;-77
2024/04/10 06:04:50;;;;;;;1.73;0.40;;;;;;;;;;5440571;25;56764;-75
2024/04/10 06:07:15;;;;;;;0.95;0.45;;;;;;;;;;5440652;25;59035;-75
2024/04/10 06:09:41;;;;;;;1.13;0.50;;;;;;;;;;5439916;25;57488;-75
2024/04/10 06:12:06;;;;;;;2.65;0.57;;;;;;;;;;5440050;25;56851;-75
2024/04/10 06:14:31;;;;;;;2.33;0.97;;;;;;;;;;5439374;25;58872;-77
2024/04/10 06:16:56;;;;;;;0.25;0.25;;;;;;;;;;5440257;25;57547;-77
2024/04/10 06:19:21;;;;;;;0.82;0.65;;;;;;;;;;5439795;25;57877;-77
2024/04/10 06:21:46;;;;;;;1.03;0.40;;;;;;;;;;5436363;25;56786;-77
2024/04/10 06:24:13;;;;;;;1.92;0.50;;;;;;;;;;5441287;25;56738;-78
2024/04/10 06:26:38;;;;;;;1.83;0.60;;;;;;;;;;5437947;25;58087;-77
2024/04/10 06:29:03;;;;;;;0.97;0.50;;;;;;;;;;5440541;25;58494;-77
2024/04/10 06:31:29;;;;;;;1.38;0.90;;;;;;;;;;5440310;25;56779;-77
2024/04/10 06:33:54;;;;;;;2.03;0.57;;;;;;;;;;5440325;25;57891;-78
2024/04/10 06:36:19;;;;;;;0.70;0.63;;;;;;;;;;5437410;25;57490;-77
2024/04/10 06:38:44;;;;;;;1.83;0.60;;;;;;;;;;5440984;25;58980;-77
2024/04/10 06:41:09;;;;;;;1.23;0.90;;;;;;;;;;5439464;25;56830;-77
2024/04/10 06:43:34;;;;;;;1.33;0.60;;;;;;;;;;5440554;25;57061;-78
2024/04/10 06:46:04;;;;;;;1.75;0.85;;;;;;;;;;5440138;25;57948;-77
2024/04/10 06:48:29;;;;;;;1.65;0.60;;;;;;;;;;5439497;25;57308;-77
2024/04/10 06:50:55;;;;;;;1.95;1.00;;;;;;;;;;5438607;25;56752;-78
2024/04/10 06:53:21;;;;;;;2.15;0.40;;;;;;;;;;5440641;25;58401;-78
2024/04/10 06:56:00;;;;;;;2.55;0.57;;;;;;;;;;5439719;25;57844;-78
2024/04/10 06:58:26;;;;;;;2.03;1.17;;;;;;;;;;5440298;25;56831;-78
2024/04/10 07:00:56;;;;;;;2.10;0.45;;;;;;;;;;5436989;25;56918;-77
2024/04/10 07:03:21;;;;;;;0.50;0.30;;;;;;;;;;5439484;25;56819;-77
2024/04/10 07:05:48;;;;;;;0.77;0.53;;;;;;;;;;5441508;25;56920;-78
2024/04/10 07:08:13;;;;;;;1.45;0.50;;;;;;;;;;5438145;25;57901;-77
2024/04/10 07:10:39;;;;;;;1.23;1.03;;;;;;;;;;5439658;25;56768;-77
2024/04/10 07:13:04;;;;;;;1.17;0.77;;;;;;;;;;5441070;25;56929;-77
2024/04/10 07:15:29;;;;;;;1.13;0.60;;;;;;;;;;5440224;25;56882;-75
2024/04/10 07:17:54;;;;;;;1.00;0.70;;;;;;;;;;5439338;25;56640;-75
2024/04/10 07:20:19;;;;;;;0.93;0.47;;;;;;;;;;5438969;25;57943;-76
2024/04/10 07:22:44;;;;;;;1.17;0.60;;;;;;;;;;5435828;25;56993;-76
2024/04/10 07:25:09;;;;;;;0.87;0.50;;;;;;;;;;5440178;25;57023;-77
2024/04/10 07:27:35;;;;;;;1.35;0.45;;;;;;;;;;5436079;25;57223;-78
2024/04/10 07:30:00;;;;;;;0.70;0.40;;;;;;;;;;5435903;25;57325;-78
2024/04/10 07:32:25;;;;;;;1.30;0.70;;;;;;;;;;5437082;25;57774;-78
2024/04/10 07:34:50;;;;;;;1.52;0.50;;;;;;;;;;5439458;25;57771;-78
2024/04/10 07:37:16;;;;;;;1.75;1.00;;;;;;;;;;5439150;25;56851;-77
2024/04/10 07:39:41;;;;;;;0.82;0.40;;;;;;;;;;5435366;25;58353;-78
2024/04/10 07:42:06;;;;;;;2.53;1.10;;;;;;;;;;5441510;25;57849;-77
2024/04/10 07:44:32;;;;;;;1.27;0.65;;;;;;;;;;5438887;25;57777;-77
2024/04/10 07:46:57;;;;;;;1.08;0.70;;;;;;;;;;5438091;25;57637;-78
2024/04/10 07:49:22;;;;;;;1.23;0.57;;;;;;;;;;5437013;25;56749;-78
2024/04/10 07:51:47;;;;;;;1.02;0.50;;;;;;;;;;5436229;25;56885;-78
2024/04/10 07:54:12;;;;;;;1.23;0.50;;;;;;;;;;5436468;25;59645;-78
2024/04/10 07:56:37;;;;;;;0.77;0.50;;;;;;;;;;5437873;25;56749;-78
2024/04/10 07:59:02;;;;;;;0.97;0.47;;;;;;;;;;5439333;25;58024;-78
2024/04/10 08:01:28;;;;;;;1.33;0.77;;;;;;;;;;5439268;25;58691;-78
2024/04/10 08:03:53;;;;;;;0.52;0.40;;;;;;;;;;5440180;25;56893;-77
2024/04/10 08:06:18;;;;;;;1.33;0.67;;;;;;;;;;5437228;25;56894;-77
2024/04/10 08:08:43;;;;;;;0.70;0.53;;;;;;;;;;5440322;25;57203;-79
2024/04/10 08:11:11;;;;;;;0.53;0.40;;;;;;;;;;5440276;25;58374;-78
2024/04/10 08:13:37;;;;;;;1.77;0.73;;;;;;;;;;5438470;25;57805;-78
2024/04/10 08:16:04;;;;;;;0.82;0.50;;;;;;;;;;5439694;25;56827;-78
2024/04/10 08:18:30;;;;;;;0.95;0.50;;;;;;;;;;5439142;25;58102;-78
2024/04/10 08:21:00;;;;;;;2.83;0.90;;;;;;;;;;5440076;25;57690;-78
2024/04/10 08:23:26;;;;;;;2.42;0.75;;;;;;;;;;5437980;25;56857;-78
2024/04/10 08:25:51;;;;;;;0.77;0.52;;;;;;;;;;5441107;25;58170;-76
2024/04/10 08:28:17;;;;;;;1.07;0.80;;;;;;;;;;5439394;25;56783;-76
2024/04/10 08:30:43;;;;;;;2.80;0.60;;;;;;;;;;5439119;25;57227;-76
2024/04/10 08:33:08;;;;;;;0.73;0.43;;;;;;;;;;5438265;25;58019;-76
2024/04/10 08:35:34;;;;;;;0.60;0.60;;;;;;;;;;5437963;25;56858;-77
2024/04/10 08:37:59;;;;;;;0.77;0.52;;;;;;;;;;5439895;25;57341;-77
2024/04/10 08:40:25;;;;;;;0.68;0.50;;;;;;;;;;5436151;25;56946;-78
2024/04/10 08:42:51;;;;;;;1.50;0.60;;;;;;;;;;5436150;25;57432;-78
2024/04/10 08:45:16;;;;;;;2.42;1.00;;;;;;;;;;5439699;25;57077;-77
2024/04/10 08:47:42;;;;;;;0.97;0.50;;;;;;;;;;5438744;25;56890;-78
2024/04/10 08:50:07;;;;;;;0.73;0.30;;;;;;;;;;5438573;25;58102;-77
2024/04/10 08:52:32;;;;;;;0.63;0.50;;;;;;;;;;5437997;25;56811;-78
2024/04/10 08:54:57;;;;;;;0.47;0.47;;;;;;;;;;5440237;25;56808;-78
2024/04/10 08:57:22;;;;;;;0.45;0.40;;;;;;;;;;5438770;25;57582;-78
2024/04/10 08:59:48;;;;;;;0.40;0.40;;;;;;;;;;5435961;25;58810;-78
2024/04/10 09:02:13;;;;;;;0.97;0.80;;;;;;;;;;5437708;25;57740;-78
2024/04/10 09:04:45;;;;;;;1.83;0.75;;;;;;;;;;5437071;25;59094;-77
2024/04/10 09:07:11;;;;;;;2.03;1.23;;;;;;;;;;5436456;25;58998;-78
2024/04/10 09:09:36;;;;;;;1.83;0.50;;;;;;;;;;5438093;25;58387;-78
2024/04/10 09:12:01;;;;;;;1.30;0.73;;;;;;;;;;5439534;25;57534;-78
2024/04/10 09:14:27;;;;;;;0.40;0.40;;;;;;;;;;5442168;25;56728;-78
2024/04/10 09:16:52;;;;;;;0.75;0.52;;;;;;;;;;5441071;25;58190;-77
2024/04/10 09:19:18;;;;;;;0.70;0.55;;;;;;;;;;5440036;25;57498;-77
2024/04/10 09:21:44;;;;;;;0.90;0.55;;;;;;;;;;5441007;25;56797;-78
2024/04/10 09:24:10;;;;;;;1.38;0.50;;;;;;;;;;5442095;25;57840;-78
2024/04/10 09:26:35;;;;;;;0.63;0.50;;;;;;;;;;5438066;25;56968;-79
2024/04/10 09:29:04;;;;;;;0.73;0.60;;;;;;;;;;5442964;25;56818;-78
2024/04/10 09:31:29;;;;;;;1.67;0.50;;;;;;;;;;5439033;25;56920;-78
2024/04/10 09:33:55;;;;;;;1.03;0.50;;;;;;;;;;5440298;25;56731;-78
2024/04/10 09:36:20;;;;;;;0.80;0.30;;;;;;;;;;5441424;25;57023;-74
2024/04/10 09:38:47;;;;;;;0.40;0.40;;;;;;;;;;5440958;25;57738;-75
2024/04/10 09:41:14;;;;;;;1.08;0.43;;;;;;;;;;5442031;25;56563;-75
2024/04/10 09:43:41;;;;;;;0.30;0.30;;;;;;;;;;5438847;25;57115;-74
2024/04/10 09:46:08;;;;;;;1.13;0.80;;;;;;;;;;5438062;25;57828;-78
2024/04/10 09:48:34;;;;;;;0.47;0.40;;;;;;;;;;5437075;25;56662;-77
2024/04/10 09:51:06;;;;;;;0.50;0.38;;;;;;;;;;5441657;25;56763;-78
2024/04/10 09:53:34;;;;;;;1.08;0.80;;;;;;;;;;5440580;25;56797;-78
2024/04/10 09:56:01;;;;;;;0.70;0.55;;;;;;;;;;5439342;25;57553;-77
2024/04/10 09:58:27;;;;;;;1.02;0.40;;;;;;;;;;5437204;25;58740;-77
2024/04/10 10:00:53;;;;;;;0.82;0.30;;;;;;;;;;5437848;25;56868;-78
2024/04/10 10:03:24;;;;;;;1.13;0.40;;;;;;;;;;5438912;25;57008;-76
2024/04/10 10:05:59;;;;;;;0.40;0.40;;;;;;;;;;5438984;25;57647;-77
2024/04/10 10:08:24;;;;;;;1.02;0.50;;;;;;;;;;5438422;25;56887;-77
2024/04/10 10:10:50;;;;;;;1.53;0.80;;;;;;;;;;5441169;25;57995;-77
2024/04/10 10:13:28;;;;;;;0.77;0.77;;;;;;;;;;5438972;25;57775;-78
2024/04/10 10:15:58;;;;;;;0.32;0.30;;;;;;;;;;5438354;25;59259;-77
2024/04/10 10:18:23;;;;;;;0.43;0.40;;;;;;;;;;5438684;25;57628;-77
2024/04/10 10:20:59;;;;;;;0.80;0.37;;;;;;;;;;5439850;25;56821;-77
2024/04/10 10:23:24;;;;;;;0.30;0.30;;;;;;;;;;5436943;25;57978;-77
2024/04/10 10:25:49;;;;;;;0.40;0.40;;;;;;;;;;5441211;25;59340;-78
2024/04/10 10:28:15;;;;;;;0.40;0.40;;;;;;;;;;5440094;25;56905;-78
2024/04/10 10:30:40;;;;;;;0.90;0.50;;;;;;;;;;5438289;25;57980;-78
2024/04/10 10:33:06;;;;;;;0.37;0.30;;;;;;;;;;5437157;25;57764;-77
2024/04/10 10:35:31;;;;;;;0.70;0.47;;;;;;;;;;5441596;25;56830;-78
2024/04/10 10:37:57;;;;;;;0.30;0.30;;;;;;;;;;5439149;25;57022;-77
2024/04/10 10:40:23;;;;;;;0.35;0.32;;;;;;;;;;5434888;25;56848;-77
2024/04/10 10:42:58;;;;;;;0.82;0.30;;;;;;;;;;5440188;25;57158;-78
2024/04/10 10:45:23;;;;;;;0.65;0.40;;;;;;;;;;5439976;25;57796;-75
2024/04/10 10:47:48;;;;;;;1.10;0.47;;;;;;;;;;5440679;25;56896;-76
2024/04/10 10:50:14;;;;;;;0.83;0.50;;;;;;;;;;5439889;25;56893;-76
2024/04/10 10:52:39;;;;;;;0.52;0.40;;;;;;;;;;5437893;25;57904;-76
2024/04/10 10:55:12;;;;;;;0.17;0.17;;;;;;;;;;5439532;25;56771;-76
2024/04/10 10:57:38;;;;;;;0.68;0.40;;;;;;;;;;5439243;25;57271;-75
2024/04/10 11:00:16;;;;;;;0.73;0.60;;;;;;;;;;5439554;25;57409;-76
2024/04/10 11:02:44;;;;;;;1.08;0.50;;;;;;;;;;5438658;25;57124;-75
2024/04/10 11:05:11;;;;;;;0.35;0.35;;;;;;;;;;5436897;25;56735;-75
2024/04/10 11:07:36;;;;;;;0.30;0.30;;;;;;;;;;5439213;25;56841;-76
2024/04/10 11:10:05;;;;;;;0.80;0.30;;;;;;;;;;5441661;25;58080;-75
2024/04/10 11:12:30;;;;;;;0.22;0.22;;;;;;;;;;5437909;25;57547;-76
2024/04/10 11:15:05;;;;;;;0.30;0.30;;;;;;;;;;5439337;25;56753;-75
2024/04/10 11:17:30;;;;;;;0.22;0.22;;;;;;;;;;5440374;25;58104;-76
2024/04/10 11:19:55;;;;;;;0.70;0.40;;;;;;;;;;5438244;25;56799;-75
2024/04/10 11:22:20;;;;;;;0.60;0.60;;;;;;;;;;5438441;25;58047;-76
2024/04/10 11:24:46;;;;;;;0.20;0.20;;;;;;;;;;5438890;25;57290;-76
2024/04/10 11:27:12;;;;;;;0.77;0.30;;;;;;;;;;5441387;25;56753;-75
2024/04/10 11:29:37;;;;;;;0.47;0.47;;;;;;;;;;5439395;25;58394;-75
2024/04/10 11:32:03;;;;;;;0.40;0.40;;;;;;;;;;5439911;25;57614;-76
2024/04/10 11:34:28;;;;;;;1.10;0.32;;;;;;;;;;5439481;25;56723;-76
2024/04/10 11:36:54;;;;;;;1.17;0.80;;;;;;;;;;5438381;25;56892;-75
2024/04/10 11:39:21;;;;;;;0.52;0.32;;;;;;;;;;5436627;25;57698;-76
2024/04/10 11:41:46;;;;;;;0.20;0.20;;;;;;;;;;5439106;25;59072;-76
2024/04/10 11:44:11;;;;;;;0.60;0.60;;;;;;;;;;5439263;25;57520;-76
2024/04/10 11:46:36;;;;;;;0.40;0.37;;;;;;;;;;5440165;25;56793;-76
2024/04/10 11:49:01;;;;;;;0.38;0.38;;;;;;;;;;5437474;25;58357;-76
2024/04/10 11:51:26;;;;;;;0.57;0.50;;;;;;;;;;5435701;25;56772;-76
2024/04/10 11:53:52;;;;;;;0.37;0.37;;;;;;;;;;5434842;25;56708;-75
2024/04/10 11:56:17;;;;;;;1.33;0.65;;;;;;;;;;5438577;25;57925;-78
2024/04/10 11:58:42;;;;;;;0.60;0.60;;;;;;;;;;5438470;25;57848;-77
2024/04/10 12:01:07;;;;;;;0.63;0.40;;;;;;;;;;5441038;25;56853;-78
2024/04/10 12:03:32;;;;;;;0.50;0.50;;;;;;;;;;5436866;25;57769;-77
2024/04/10 12:06:04;;;;;;;0.70;0.40;;;;;;;;;;5439962;25;56670;-77
2024/04/10 12:08:29;;;;;;;1.60;0.60;;;;;;;;;;5439209;25;58023;-78
2024/04/10 12:10:54;;;;;;;1.47;0.70;;;;;;;;;;5439035;25;57618;-78
2024/04/10 12:13:19;;;;;;;2.20;0.87;;;;;;;;;;5440052;25;57074;-76
2024/04/10 12:15:44;;;;;;;0.67;0.50;;;;;;;;;;5435283;25;58199;-77
2024/04/10 12:18:09;;;;;;;0.85;0.57;;;;;;;;;;5437937;25;57122;-77
2024/04/10 12:20:34;;;;;;;0.57;0.57;;;;;;;;;;5435036;25;56858;-76
2024/04/10 12:23:00;;;;;;;2.92;0.68;;;;;;;;;;5437252;25;58224;-76
2024/04/10 12:25:25;;;;;;;0.93;0.65;;;;;;;;;;5434925;25;56833;-75
2024/04/10 12:27:50;;;;;;;1.63;0.73;;;;;;;;;;5438016;25;57808;-75
2024/04/10 12:30:15;;;;;;;1.10;0.50;;;;;;;;;;5435004;25;58066;-76
2024/04/10 12:32:41;;;;;;;1.73;0.53;;;;;;;;;;5437011;25;56894;-75
2024/04/10 12:38:02;;;;;;;0.85;0.45;;;;;;;;;;5429314;25;56875;-75
2024/04/10 12:40:28;;;;;;;1.52;0.52;;;;;;;;;;5433137;25;56723;-75
2024/04/10 12:42:53;;;;;;;3.90;0.70;;;;;;;;;;5430428;25;57213;-75
2024/04/10 12:45:18;;;;;;;2.75;0.82;;;;;;;;;;5434716;25;58061;-75
2024/04/10 12:47:43;;;;;;;1.33;0.70;;;;;;;;;;5430204;25;57152;-75
2024/04/10 12:50:08;;;;;;;1.48;0.80;;;;;;;;;;5433013;25;57900;-74
2024/04/10 12:52:34;;;;;;;2.97;0.60;;;;;;;;;;5431871;25;56926;-78
2024/04/10 12:55:00;;;;;;;0.80;0.57;;;;;;;;;;5432617;25;57691;-76
2024/04/10 12:57:25;;;;;;;3.17;0.73;;;;;;;;;;5430749;25;56898;-78
2024/04/10 12:59:50;;;;;;;1.67;0.70;;;;;;;;;;5432937;25;56956;-76
2024/04/10 13:02:15;;;;;;;1.00;0.85;;;;;;;;;;5432210;25;57986;-74
2024/04/10 13:04:41;;;;;;;3.47;0.50;;;;;;;;;;5432776;25;56935;-75
2024/04/10 13:07:06;;;;;;;2.30;0.85;;;;;;;;;;5432651;25;58797;-80
2024/04/10 13:09:31;;;;;;;7.37;0.60;;;;;;;;;;5432014;25;56923;-78
2024/04/10 13:11:57;;;;;;;3.90;1.30;;;;;;;;;;5431463;25;57052;-80
2024/04/10 13:14:22;;;;;;;12.10;1.60;;;;;;;;;;5432427;25;58024;-80
2024/04/10 13:16:47;;;;;;;5.50;0.97;;;;;;;;;;5430781;25;58025;-79
2024/04/10 13:19:13;;;;;;;5.13;1.00;;;;;;;;;;5433568;25;56844;-79
2024/04/10 13:21:38;;;;;;;10.57;0.90;;;;;;;;;;5432678;25;58266;-79
2024/04/10 13:24:03;;;;;;;2.65;0.43;;;;;;;;;;5427349;25;57727;-77
2024/04/10 13:26:29;;;;;;;1.40;0.52;;;;;;;;;;5431316;25;56737;-78
2024/04/10 13:28:54;;;;;;;2.60;0.93;;;;;;;;;;5425938;25;57556;-76
2024/04/10 13:31:21;;;;;;;1.17;0.52;;;;;;;;;;5428757;25;58093;-78
2024/04/10 13:33:47;;;;;;;5.50;1.30;;;;;;;;;;5430291;25;57049;-78
2024/04/10 13:36:13;;;;;;;5.50;0.60;;;;;;;;;;5433814;25;58074;-79
2024/04/10 13:38:39;;;;;;;4.00;0.63;;;;;;;;;;5430080;25;56768;-78
2024/04/10 13:41:04;;;;;;;2.13;0.77;;;;;;;;;;5431826;25;58080;-78
2024/04/10 13:43:30;;;;;;;2.85;0.50;;;;;;;;;;5428151;25;57672;-78
2024/04/10 13:45:55;;;;;;;4.55;1.00;;;;;;;;;;5432334;25;56812;-77
2024/04/10 13:48:21;;;;;;;4.25;0.65;;;;;;;;;;5431726;25;58889;-75
2024/04/10 13:50:46;;;;;;;1.70;0.67;;;;;;;;;;5428051;25;56871;-77
2024/04/10 13:53:11;;;;;;;6.65;1.08;;;;;;;;;;5430133;25;57906;-77
2024/04/10 13:55:37;;;;;;;2.92;1.30;;;;;;;;;;5432619;25;58646;-79
2024/04/10 13:58:02;;;;;;;5.33;0.93;;;;;;;;;;5433001;25;56735;-77
2024/04/10 14:00:30;;;;;;;2.10;1.33;;;;;;;;;;5432142;25;57887;-76
2024/04/10 14:02:56;;;;;;;3.70;0.80;;;;;;;;;;5434040;25;58637;-77
2024/04/10 14:05:21;;;;;;;2.37;1.07;;;;;;;;;;5430043;25;56882;-75
2024/04/10 14:07:46;;;;;;;2.63;0.50;;;;;;;;;;5431753;25;58924;-77
2024/04/10 14:10:12;;;;;;;3.17;1.00;;;;;;;;;;5436310;25;57740;-77
2024/04/10 14:12:37;;;;;;;1.20;0.63;;;;;;;;;;5434304;25;57019;-77
2024/04/10 14:15:03;;;;;;;1.52;0.65;;;;;;;;;;5435567;25;57654;-73
2024/04/10 14:17:28;;;;;;;0.80;0.37;;;;;;;;;;5432417;25;56812;-73
2024/04/10 14:19:53;;;;;;;1.13;0.80;;;;;;;;;;5437269;25;58805;-73
2024/04/10 14:22:18;;;;;;;0.97;0.70;;;;;;;;;;5431410;25;58155;-73
2024/04/10 14:24:43;;;;;;;3.33;0.90;;;;;;;;;;5433516;25;56919;-78
2024/04/10 14:27:09;;;;;;;3.83;0.77;;;;;;;;;;5434380;25;58438;-77
2024/04/10 14:29:34;;;;;;;3.03;0.70;;;;;;;;;;5432757;25;57953;-77
2024/04/10 14:31:59;;;;;;;1.03;0.50;;;;;;;;;;5430725;25;56961;-77
2024/04/10 14:34:24;;;;;;;2.83;0.60;;;;;;;;;;5434526;25;57885;-77
2024/04/10 14:36:49;;;;;;;2.85;0.50;;;;;;;;;;5438023;25;56825;-78
2024/04/10 14:39:14;;;;;;;2.75;0.57;;;;;;;;;;5431578;25;57768;-76
2024/04/10 14:41:39;;;;;;;1.30;0.50;;;;;;;;;;5433846;25;56940;-76